createdAt,value
2023-04-17T00:00:36.400Z,16.45
2023-04-17T00:03:04.150Z,15.65
2023-04-17T00:05:32.201Z,16.17
2023-04-17T00:08:00.352Z,15.48
2023-04-17T00:10:27.830Z,15.68
2023-04-17T00:12:55.144Z,14.68
2023-04-17T00:15:22.539Z,15.57
2023-04-17T00:17:49.923Z,14.13
2023-04-17T00:20:17.243Z,9.30
2023-04-17T00:22:44.546Z,8.45
2023-04-17T00:25:15.083Z,9.60
2023-04-17T00:27:43.093Z,7.82
2023-04-17T00:30:10.951Z,8.32
2023-04-17T00:32:38.338Z,8.00
2023-04-17T00:35:06.212Z,7.25
2023-04-17T00:37:33.517Z,7.32
2023-04-17T00:40:00.849Z,8.55
2023-04-17T00:42:28.139Z,7.93
2023-04-17T00:44:55.588Z,8.45
2023-04-17T00:47:23.037Z,8.50
2023-04-17T00:49:51.345Z,8.82
2023-04-17T00:52:32.256Z,8.95
2023-04-17T00:55:00.687Z,9.00
2023-04-17T00:57:28.231Z,8.27
2023-04-17T00:59:57.909Z,8.40
2023-04-17T01:02:26.519Z,7.18
2023-04-17T01:04:54.207Z,8.48
2023-04-17T01:07:21.574Z,7.70
2023-04-17T01:09:48.933Z,7.80
2023-04-17T01:12:24.490Z,7.72
2023-04-17T01:14:53.060Z,7.50
2023-04-17T01:17:21.746Z,7.80
2023-04-17T01:19:50.310Z,7.47
2023-04-17T01:22:17.849Z,7.38
2023-04-17T01:24:45.201Z,6.50
2023-04-17T01:27:16.275Z,7.30
2023-04-17T01:29:45.697Z,7.32
2023-04-17T01:32:31.528Z,7.38
2023-04-17T01:35:00.343Z,7.10
2023-04-17T01:39:56.264Z,7.38
2023-04-17T01:42:23.863Z,7.60
2023-04-17T01:44:51.402Z,7.07
2023-04-17T01:47:19.012Z,7.13
2023-04-17T01:49:46.367Z,7.13
2023-04-17T01:52:13.710Z,6.68
2023-04-17T01:54:41.050Z,7.63
2023-04-17T01:57:08.408Z,7.22
2023-04-17T01:59:36.283Z,8.07
2023-04-17T02:02:03.807Z,7.43
2023-04-17T02:04:31.436Z,7.10
2023-04-17T02:09:43.734Z,7.30
2023-04-17T02:12:11.285Z,7.47
2023-04-17T02:14:38.582Z,7.95
2023-04-17T02:17:06.172Z,7.10
2023-04-17T02:19:33.537Z,7.25
2023-04-17T02:22:03.334Z,6.85
2023-04-17T02:24:31.731Z,6.78
2023-04-17T02:27:19.522Z,7.15
2023-04-17T02:29:46.788Z,6.82
2023-04-17T02:32:16.820Z,6.95
2023-04-17T02:34:44.685Z,7.13
2023-04-17T02:37:14.117Z,7.18
2023-04-17T02:40:00.058Z,7.63
2023-04-17T02:42:27.477Z,7.53
2023-04-17T02:44:54.795Z,7.22
2023-04-17T02:47:23.045Z,7.72
2023-04-17T02:49:51.319Z,7.72
2023-04-17T02:52:19.065Z,6.97
2023-04-17T02:54:46.563Z,7.10
2023-04-17T02:57:14.179Z,6.75
2023-04-17T02:59:41.493Z,6.80
2023-04-17T03:02:08.886Z,6.10
2023-04-17T03:04:39.073Z,6.15
2023-04-17T03:07:07.184Z,6.20
2023-04-17T03:09:35.072Z,5.78
2023-04-17T03:12:04.932Z,6.15
2023-04-17T03:14:32.228Z,5.35
2023-04-17T03:16:59.885Z,5.38
2023-04-17T03:19:27.228Z,5.32
2023-04-17T03:21:54.431Z,6.20
2023-04-17T03:24:21.812Z,5.43
2023-04-17T03:26:49.245Z,6.90
2023-04-17T03:29:19.560Z,8.38
2023-04-17T03:31:46.899Z,10.40
2023-04-17T03:34:14.589Z,10.55
2023-04-17T03:36:42.396Z,11.80
2023-04-17T03:39:10.402Z,11.60
2023-04-17T03:44:07.354Z,12.32
2023-04-17T03:46:34.941Z,13.18
2023-04-17T03:49:02.253Z,14.85
2023-04-17T03:51:29.988Z,14.23
2023-04-17T03:54:02.581Z,13.43
2023-04-17T03:56:30.854Z,13.55
2023-04-17T03:58:59.484Z,13.90
2023-04-17T04:01:30.308Z,12.90
2023-04-17T04:04:33.453Z,11.88
2023-04-17T04:07:07.667Z,10.60
2023-04-17T04:09:35.875Z,10.02
2023-04-17T04:12:05.379Z,9.73
2023-04-17T04:14:41.648Z,9.70
2023-04-17T04:17:10.083Z,8.23
2023-04-17T04:19:38.888Z,8.43
2023-04-17T04:22:06.867Z,7.75
2023-04-17T04:24:44.697Z,7.78
2023-04-17T04:27:18.381Z,7.00
2023-04-17T04:29:49.113Z,7.95
2023-04-17T04:32:19.823Z,6.18
2023-04-17T04:34:51.089Z,7.03
2023-04-17T04:37:22.113Z,6.72
2023-04-17T04:39:54.287Z,4.03
2023-04-17T04:42:24.056Z,3.67
2023-04-17T04:45:26.764Z,3.88
2023-04-17T04:47:56.200Z,2.60
2023-04-17T04:50:25.547Z,2.88
2023-04-17T04:52:55.824Z,2.78
2023-04-17T04:55:48.811Z,2.65
2023-04-17T04:58:20.201Z,3.35
2023-04-17T05:00:51.772Z,2.75
2023-04-17T05:03:28.874Z,2.80
2023-04-17T05:05:59.754Z,3.17
2023-04-17T05:08:33.940Z,2.80
2023-04-17T05:11:10.582Z,2.25
2023-04-17T05:13:41.484Z,2.58
2023-04-17T05:16:15.235Z,2.70
2023-04-17T05:18:44.889Z,2.65
2023-04-17T05:21:23.276Z,2.42
2023-04-17T05:23:54.245Z,2.13
2023-04-17T05:26:25.238Z,2.30
2023-04-17T05:28:55.230Z,2.35
2023-04-17T05:31:31.670Z,1.60
2023-04-17T05:34:01.240Z,1.75
2023-04-17T05:36:32.427Z,1.70
2023-04-17T05:39:03.555Z,1.83
2023-04-17T05:41:32.304Z,3.30
2023-04-17T05:44:00.016Z,5.68
2023-04-17T05:46:32.242Z,4.88
2023-04-17T05:49:00.252Z,6.03
2023-04-17T05:51:31.273Z,7.57
2023-04-17T05:54:03.736Z,7.88
2023-04-17T05:56:32.834Z,4.65
2023-04-17T05:59:03.919Z,7.53
2023-04-17T06:01:40.668Z,5.97
2023-04-17T06:04:10.981Z,5.47
2023-04-17T06:06:44.401Z,3.00
2023-04-17T06:09:16.538Z,2.90
2023-04-17T06:11:47.042Z,3.05
2023-04-17T06:14:17.342Z,2.20
2023-04-17T06:16:45.803Z,1.45
2023-04-17T06:19:17.236Z,2.10
2023-04-17T06:21:46.569Z,1.80
2023-04-17T06:24:14.300Z,1.60
2023-04-17T06:26:46.483Z,2.50
2023-04-17T06:29:17.327Z,1.90
2023-04-17T06:31:46.956Z,2.38
2023-04-17T06:34:18.080Z,2.30
2023-04-17T06:36:55.935Z,1.90
2023-04-17T06:39:26.069Z,2.30
2023-04-17T06:41:56.478Z,3.00
2023-04-17T06:44:29.080Z,3.30
2023-04-17T06:47:02.773Z,2.42
2023-04-17T06:49:46.697Z,2.50
2023-04-17T06:52:15.180Z,2.00
2023-04-17T06:55:15.008Z,2.10
2023-04-17T06:57:42.826Z,2.30
2023-04-17T07:00:13.416Z,1.70
2023-04-17T07:02:44.075Z,1.80
2023-04-17T07:05:14.212Z,2.15
2023-04-17T07:07:43.640Z,1.67
2023-04-17T07:10:13.987Z,1.52
2023-04-17T07:12:44.381Z,2.05
2023-04-17T07:15:12.008Z,1.92
2023-04-17T07:17:39.496Z,1.55
2023-04-17T07:20:08.024Z,1.85
2023-04-17T07:22:35.517Z,1.65
2023-04-17T07:25:03.254Z,1.65
2023-04-17T07:27:31.463Z,1.55
2023-04-17T07:30:05.224Z,1.73
2023-04-17T07:32:33.417Z,1.60
2023-04-17T07:35:01.530Z,1.92
2023-04-17T07:37:30.954Z,1.80
2023-04-17T07:39:58.606Z,1.50
2023-04-17T07:42:29.494Z,1.65
2023-04-17T07:44:57.974Z,1.90
2023-04-17T07:47:25.467Z,1.42
2023-04-17T07:49:53.151Z,1.85
2023-04-17T07:52:26.438Z,1.70
2023-04-17T07:55:00.187Z,1.42
2023-04-17T07:57:32.377Z,1.55
2023-04-17T08:00:09.186Z,1.77
2023-04-17T08:02:47.259Z,1.50
2023-04-17T08:05:29.945Z,1.88
2023-04-17T08:08:05.395Z,1.45
2023-04-17T08:10:35.640Z,2.63
2023-04-17T08:13:04.256Z,1.63
2023-04-17T08:18:12.557Z,1.83
2023-04-17T08:20:41.431Z,1.70
2023-04-17T08:23:08.770Z,1.60
2023-04-17T08:25:40.248Z,2.00
2023-04-17T08:28:24.432Z,1.80
2023-04-17T08:30:52.222Z,1.70
2023-04-17T08:33:20.696Z,1.85
2023-04-17T08:35:49.638Z,1.52
2023-04-17T08:38:17.302Z,1.80
2023-04-17T08:40:50.472Z,1.90
2023-04-17T08:43:25.017Z,1.77
2023-04-17T08:45:58.137Z,1.95
2023-04-17T08:48:27.469Z,1.83
2023-04-17T08:51:01.766Z,1.63
2023-04-17T08:56:13.779Z,1.38
2023-04-17T08:58:45.610Z,1.88
2023-04-17T09:01:17.680Z,1.52
2023-04-17T09:03:49.250Z,1.45
2023-04-17T09:06:17.997Z,1.30
2023-04-17T09:09:02.498Z,2.00
2023-04-17T09:11:31.682Z,1.60
2023-04-17T09:13:59.793Z,1.40
2023-04-17T09:16:29.578Z,1.50
2023-04-17T09:19:07.266Z,1.70
2023-04-17T09:21:34.558Z,2.53
2023-04-17T09:24:02.352Z,1.40
2023-04-17T09:26:33.727Z,1.40
2023-04-17T09:29:09.644Z,1.80
2023-04-17T09:31:43.837Z,1.65
2023-04-17T09:36:44.388Z,1.80
2023-04-17T09:39:27.282Z,1.70
2023-04-17T09:42:08.365Z,1.58
2023-04-17T09:44:55.336Z,1.45
2023-04-17T09:49:59.632Z,1.35
2023-04-17T09:52:27.715Z,1.45
2023-04-17T09:54:55.574Z,1.63
2023-04-17T09:57:24.406Z,1.52
2023-04-17T09:59:54.600Z,1.80
2023-04-17T10:02:26.157Z,1.58
2023-04-17T10:04:54.887Z,1.85
2023-04-17T10:07:22.270Z,1.70
2023-04-17T10:09:51.728Z,1.63
2023-04-17T10:12:21.568Z,2.08
2023-04-17T10:14:53.460Z,2.50
2023-04-17T10:17:35.490Z,2.80
2023-04-17T10:20:19.068Z,2.80
2023-04-17T10:22:54.894Z,2.42
2023-04-17T10:25:27.187Z,2.13
2023-04-17T10:28:05.852Z,2.58
2023-04-17T10:30:53.924Z,2.40
2023-04-17T10:33:55.832Z,2.30
2023-04-17T10:36:40.727Z,2.08
2023-04-17T10:39:16.169Z,2.10
2023-04-17T10:42:04.464Z,2.58
2023-04-17T10:44:41.954Z,2.60
2023-04-17T10:47:16.233Z,2.08
2023-04-17T10:49:51.139Z,1.90
2023-04-17T10:52:42.846Z,1.60
2023-04-17T10:55:10.583Z,1.60
2023-04-17T10:57:53.327Z,2.00
2023-04-17T11:00:30.692Z,2.00
2023-04-17T11:03:01.148Z,2.05
2023-04-17T11:05:29.458Z,1.42
2023-04-17T11:07:58.526Z,1.90
2023-04-17T11:10:26.794Z,1.48
2023-04-17T11:12:56.657Z,1.42
2023-04-17T11:15:28.903Z,2.05
2023-04-17T11:17:58.235Z,2.35
2023-04-17T11:20:30.453Z,1.60
2023-04-17T11:23:03.046Z,1.52
2023-04-17T11:25:32.331Z,1.60
2023-04-17T11:28:05.739Z,1.40
2023-04-17T11:30:36.244Z,1.48
2023-04-17T11:33:08.497Z,2.08
2023-04-17T11:35:37.697Z,1.63
2023-04-17T11:38:09.297Z,2.10
2023-04-17T11:40:36.790Z,2.10
2023-04-17T11:43:08.660Z,1.90
2023-04-17T11:45:38.237Z,1.70
2023-04-17T11:48:08.766Z,1.50
2023-04-17T11:50:36.589Z,1.70
2023-04-17T11:55:36.214Z,1.45
2023-04-17T11:58:06.843Z,1.30
2023-04-17T12:00:35.718Z,1.30
2023-04-17T12:03:35.354Z,1.50
2023-04-17T12:06:04.944Z,1.75
2023-04-17T12:08:43.394Z,1.95
2023-04-17T12:11:26.164Z,1.48
2023-04-17T12:13:54.562Z,2.30
2023-04-17T12:16:25.064Z,15.68
2023-04-17T12:18:53.499Z,1.70
2023-04-17T12:21:21.618Z,1.90
2023-04-17T12:23:49.366Z,2.00
2023-04-17T12:28:46.254Z,2.45
2023-04-17T12:31:14.189Z,2.38
2023-04-17T12:33:41.902Z,1.90
2023-04-17T12:36:11.346Z,3.00
2023-04-17T12:38:58.145Z,2.63
2023-04-17T12:41:27.068Z,2.55
2023-04-17T12:43:55.062Z,1.98
2023-04-17T12:46:22.952Z,2.20
2023-04-17T12:51:18.659Z,2.08
2023-04-17T12:53:47.958Z,2.10
2023-04-17T12:56:15.410Z,1.92
2023-04-17T12:58:42.661Z,1.95
2023-04-17T13:01:28.572Z,1.80
2023-04-17T13:03:56.166Z,1.85
2023-04-17T13:08:53.253Z,2.00
2023-04-17T13:11:20.583Z,1.50
2023-04-17T13:13:47.866Z,1.63
2023-04-17T13:16:15.744Z,1.60
2023-04-17T13:21:10.389Z,1.73
2023-04-17T13:23:37.778Z,2.10
2023-04-17T13:26:05.290Z,1.98
2023-04-17T13:28:51.197Z,1.80
2023-04-17T13:31:18.719Z,1.65
2023-04-17T13:33:46.012Z,1.80
2023-04-17T13:36:13.373Z,1.90
2023-04-17T13:38:40.725Z,2.20
2023-04-17T13:41:07.950Z,2.00
2023-04-17T13:43:35.369Z,2.20
2023-04-17T13:46:02.792Z,1.85
2023-04-17T13:48:30.175Z,2.40
2023-04-17T13:50:57.604Z,2.30
2023-04-17T13:53:25.052Z,2.08
2023-04-17T13:55:52.510Z,1.63
2023-04-17T13:58:20.052Z,1.65
2023-04-17T14:00:47.401Z,2.08
2023-04-17T14:03:14.940Z,1.60
2023-04-17T14:05:42.361Z,1.20
2023-04-17T14:08:10.094Z,1.40
2023-04-17T14:15:32.485Z,1.85
2023-04-17T14:18:00.112Z,1.95
2023-04-17T14:20:27.440Z,1.90
2023-04-17T14:22:54.843Z,2.25
2023-04-17T14:25:22.682Z,2.40
2023-04-17T14:27:50.153Z,2.42
2023-04-17T14:30:17.485Z,2.28
2023-04-17T14:32:44.900Z,2.05
2023-04-17T14:35:13.608Z,2.00
2023-04-17T14:37:42.184Z,2.30
2023-04-17T14:40:09.887Z,2.55
2023-04-17T14:42:47.476Z,2.38
2023-04-17T14:45:20.813Z,2.50
2023-04-17T14:47:48.198Z,2.30
2023-04-17T14:50:15.537Z,2.75
2023-04-17T14:52:42.816Z,2.22
2023-04-17T14:55:10.909Z,2.53
2023-04-17T14:57:38.298Z,2.10
2023-04-17T15:00:07.371Z,2.75
2023-04-17T15:02:38.936Z,1.88
2023-04-17T15:05:07.580Z,2.53
2023-04-17T15:07:35.659Z,2.42
2023-04-17T15:10:03.138Z,2.20
2023-04-17T15:12:30.680Z,1.88
2023-04-17T15:14:58.007Z,2.05
2023-04-17T15:17:25.546Z,2.80
2023-04-17T15:19:55.062Z,2.38
2023-04-17T15:22:22.258Z,2.90
2023-04-17T15:24:49.491Z,2.67
2023-04-17T15:27:16.887Z,2.00
2023-04-17T15:29:46.178Z,2.38
2023-04-17T15:32:13.841Z,2.20
2023-04-17T15:34:41.500Z,2.30
2023-04-17T15:37:10.847Z,2.30
2023-04-17T15:39:39.451Z,2.20
2023-04-17T15:42:11.342Z,2.10
2023-04-17T15:44:39.012Z,2.08
2023-04-17T15:47:07.009Z,2.60
2023-04-17T15:49:34.484Z,2.53
2023-04-17T15:52:02.077Z,1.95
2023-04-17T15:54:29.375Z,2.72
2023-04-17T15:56:57.278Z,3.92
2023-04-17T16:04:21.011Z,2.15
2023-04-17T16:06:48.412Z,2.78
2023-04-17T16:09:19.791Z,2.33
2023-04-17T16:11:48.772Z,2.90
2023-04-17T16:14:16.311Z,2.42
2023-04-17T16:16:43.699Z,2.65
2023-04-17T16:19:11.358Z,2.80
2023-04-17T16:24:06.245Z,2.40
2023-04-17T16:26:33.681Z,2.78
2023-04-17T16:29:01.017Z,2.47
2023-04-17T16:31:28.530Z,3.08
2023-04-17T16:33:56.280Z,3.67
2023-04-17T16:36:23.714Z,3.60
2023-04-17T16:38:51.071Z,5.07
2023-04-17T16:41:18.945Z,4.70
2023-04-17T16:43:46.561Z,5.57
2023-04-17T16:46:23.817Z,6.65
2023-04-17T16:48:56.346Z,7.55
2023-04-17T16:51:27.241Z,7.55
2023-04-17T16:53:54.543Z,8.02
2023-04-17T16:56:21.817Z,7.32
2023-04-17T16:58:49.408Z,7.15
2023-04-17T17:01:16.865Z,8.45
2023-04-17T17:03:45.415Z,8.00
2023-04-17T17:06:12.989Z,7.50
2023-04-17T17:08:42.133Z,8.55
2023-04-17T17:11:09.415Z,9.43
2023-04-17T17:13:36.675Z,12.40
2023-04-17T17:16:04.017Z,12.05
2023-04-17T17:18:31.392Z,9.90
2023-04-17T17:21:00.343Z,10.55
2023-04-17T17:23:27.809Z,10.10
2023-04-17T17:25:55.105Z,8.70
2023-04-17T17:28:22.552Z,6.40
2023-04-17T17:30:49.881Z,4.22
2023-04-17T17:33:36.852Z,5.53
2023-04-17T17:36:04.407Z,2.80
2023-04-17T17:38:32.885Z,2.28
2023-04-17T17:41:00.645Z,1.80
2023-04-17T17:43:28.732Z,1.48
2023-04-17T17:50:54.685Z,0.95
2023-04-17T17:53:26.236Z,1.20
2023-04-17T17:55:56.363Z,1.00
2023-04-17T17:58:42.192Z,1.00
2023-04-17T18:01:09.587Z,1.10
2023-04-17T18:03:37.029Z,1.20
2023-04-17T18:06:04.449Z,1.00
2023-04-17T18:08:31.780Z,1.08
2023-04-17T18:10:59.118Z,1.20
2023-04-17T18:13:26.390Z,1.00
2023-04-17T18:15:53.691Z,1.10
2023-04-17T18:18:20.989Z,0.82
2023-04-17T18:20:48.342Z,1.20
2023-04-17T18:23:15.730Z,1.23
2023-04-17T18:25:43.085Z,1.20
2023-04-17T18:28:10.616Z,1.30
2023-04-17T18:30:37.855Z,0.95
2023-04-17T18:33:05.704Z,1.10
2023-04-17T18:35:51.742Z,1.40
2023-04-17T18:38:19.097Z,1.10
2023-04-17T18:40:46.409Z,1.15
2023-04-17T18:43:13.712Z,1.00
2023-04-17T18:45:40.938Z,1.08
2023-04-17T18:48:09.134Z,1.05
2023-04-17T18:50:38.698Z,1.05
2023-04-17T18:53:06.072Z,1.13
2023-04-17T18:55:33.554Z,1.40
2023-04-17T18:58:01.198Z,0.98
2023-04-17T19:00:28.957Z,1.40
2023-04-17T19:02:56.368Z,0.85
2023-04-17T19:05:24.408Z,1.00
2023-04-17T19:07:52.216Z,1.40
2023-04-17T19:10:19.654Z,0.82
2023-04-17T19:12:47.170Z,0.90
2023-04-17T19:15:14.566Z,0.90
2023-04-17T19:17:41.938Z,0.90
2023-04-17T19:20:10.086Z,1.02
2023-04-17T19:25:04.939Z,1.05
2023-04-17T19:27:32.164Z,0.95
2023-04-17T19:29:59.554Z,1.10
2023-04-17T19:32:26.982Z,0.88
2023-04-17T19:34:54.353Z,0.70
2023-04-17T19:37:21.709Z,0.82
2023-04-17T19:39:49.082Z,1.00
2023-04-17T19:42:16.424Z,1.10
2023-04-17T19:44:43.703Z,1.30
2023-04-17T19:47:11.676Z,1.08
2023-04-17T19:49:39.066Z,1.23
2023-04-17T19:52:06.412Z,1.10
2023-04-17T19:54:33.696Z,0.90
2023-04-17T19:57:00.924Z,1.13
2023-04-17T19:59:28.396Z,0.80
2023-04-17T20:01:55.954Z,1.10
2023-04-17T20:04:23.557Z,1.00
2023-04-17T20:06:50.925Z,0.90
2023-04-17T20:09:18.483Z,1.25
2023-04-17T20:11:45.957Z,1.23
2023-04-17T20:14:15.054Z,1.50
2023-04-17T20:16:44.641Z,1.42
2023-04-17T20:19:12.586Z,1.25
2023-04-17T20:21:40.020Z,1.70
2023-04-17T20:24:07.479Z,1.15
2023-04-17T20:26:37.120Z,1.20
2023-04-17T20:29:04.952Z,1.00
2023-04-17T20:31:36.504Z,1.00
2023-04-17T20:34:04.043Z,1.35
2023-04-17T20:36:31.642Z,1.00
2023-04-17T20:38:58.952Z,1.17
2023-04-17T20:41:26.361Z,1.27
2023-04-17T20:44:00.733Z,1.10
2023-04-17T20:46:28.916Z,1.10
2023-04-17T20:53:55.332Z,0.80
2023-04-17T20:56:23.298Z,0.80
2023-04-17T20:58:50.640Z,0.90
2023-04-17T21:01:18.122Z,1.10
2023-04-17T21:03:45.701Z,0.70
2023-04-17T21:06:13.140Z,0.85
2023-04-17T21:08:40.474Z,0.95
2023-04-17T21:11:07.888Z,0.80
2023-04-17T21:13:36.513Z,0.90
2023-04-17T21:16:22.448Z,0.90
2023-04-17T21:18:49.877Z,0.88
2023-04-17T21:21:17.341Z,0.77
2023-04-17T21:23:44.600Z,0.80
2023-04-17T21:26:11.964Z,1.20
2023-04-17T21:28:39.384Z,1.02
2023-04-17T21:31:10.427Z,1.00
2023-04-17T21:33:38.840Z,0.82
2023-04-17T21:36:06.737Z,0.90
2023-04-17T21:38:33.991Z,0.85
2023-04-17T21:41:01.307Z,0.80
2023-04-17T21:43:28.564Z,0.85
2023-04-17T21:45:57.338Z,1.00
2023-04-17T21:48:24.586Z,0.90
2023-04-17T21:50:52.042Z,0.95
2023-04-17T21:53:19.316Z,1.00
2023-04-17T21:55:46.529Z,0.95
2023-04-17T21:58:13.796Z,1.00
2023-04-17T22:00:41.197Z,0.90
2023-04-17T22:03:08.567Z,0.80
2023-04-17T22:05:35.878Z,0.95
2023-04-17T22:08:03.191Z,0.88
2023-04-17T22:10:30.952Z,0.98
2023-04-17T22:12:58.378Z,1.05
2023-04-17T22:15:25.820Z,0.90
2023-04-17T22:17:53.213Z,0.90
2023-04-17T22:20:21.047Z,0.85
2023-04-17T22:22:48.227Z,1.10
2023-04-17T22:25:15.492Z,1.10
2023-04-17T22:27:42.944Z,1.50
2023-04-17T22:30:10.806Z,1.23
2023-04-17T22:32:38.323Z,1.30
2023-04-17T22:35:06.186Z,1.10
2023-04-17T22:37:33.763Z,1.40
2023-04-17T22:40:01.015Z,1.27
2023-04-17T22:42:30.182Z,1.17
2023-04-17T22:44:57.503Z,1.48
2023-04-17T22:47:24.804Z,1.00
2023-04-17T22:49:52.792Z,1.15
2023-04-17T22:52:20.655Z,1.08
2023-04-17T22:54:47.999Z,1.23
2023-04-17T22:57:15.337Z,1.33
2023-04-17T22:59:42.726Z,1.40
2023-04-17T23:02:10.177Z,1.40
2023-04-17T23:04:37.638Z,1.30
2023-04-17T23:07:05.010Z,1.27
2023-04-17T23:09:32.294Z,1.30
2023-04-17T23:11:59.522Z,1.38
2023-04-17T23:14:28.736Z,1.75
2023-04-17T23:16:56.055Z,1.40
2023-04-17T23:19:23.648Z,1.10
2023-04-17T23:21:50.993Z,1.13
2023-04-17T23:24:18.250Z,1.73
2023-04-17T23:26:45.585Z,1.50
2023-04-17T23:29:13.740Z,1.52
2023-04-17T23:31:42.975Z,1.63
2023-04-17T23:34:10.387Z,1.60
2023-04-17T23:36:37.756Z,1.35
2023-04-17T23:39:06.032Z,1.60
2023-04-17T23:44:04.102Z,1.63
2023-04-17T23:46:31.511Z,1.10
2023-04-17T23:48:58.893Z,1.52
2023-04-17T23:51:26.495Z,1.40
2023-04-17T23:53:53.973Z,1.58
2023-04-17T23:56:22.872Z,1.40
2023-04-17T23:58:50.213Z,1.85
